createdAt,value
2023-01-07T00:01:39.305Z,10.96
2023-01-07T00:04:10.719Z,10.96
2023-01-07T00:06:41.635Z,10.99
2023-01-07T00:09:16.744Z,10.99
2023-01-07T00:11:45.975Z,10.99
2023-01-07T00:14:15.284Z,11.00
2023-01-07T00:16:43.662Z,11.02
2023-01-07T00:19:15.321Z,11.03
2023-01-07T00:21:43.845Z,11.05
2023-01-07T00:24:12.333Z,11.07
2023-01-07T00:26:40.925Z,11.09
2023-01-07T00:29:09.390Z,11.11
2023-01-07T00:31:40.838Z,11.11
2023-01-07T00:34:09.571Z,11.16
2023-01-07T00:36:44.438Z,11.16
2023-01-07T00:39:19.801Z,11.17
2023-01-07T00:42:07.696Z,11.18
2023-01-07T00:44:36.976Z,11.19
2023-01-07T00:47:05.104Z,11.19
2023-01-07T00:49:32.628Z,11.18
2023-01-07T00:52:00.746Z,11.17
2023-01-07T00:54:28.729Z,11.16
2023-01-07T00:56:56.899Z,11.17
2023-01-07T00:59:24.676Z,11.16
2023-01-07T01:01:52.590Z,11.14
2023-01-07T01:04:20.420Z,11.11
2023-01-07T01:06:48.367Z,11.07
2023-01-07T01:09:15.868Z,11.04
2023-01-07T01:11:43.773Z,11.00
2023-01-07T01:14:12.940Z,10.96
2023-01-07T01:16:40.915Z,10.92
2023-01-07T01:19:08.490Z,10.87
2023-01-07T01:21:36.682Z,10.80
2023-01-07T01:24:04.539Z,10.77
2023-01-07T01:26:32.367Z,10.72
2023-01-07T01:28:59.898Z,10.72
2023-01-07T01:31:27.809Z,10.70
2023-01-07T01:33:57.068Z,10.72
2023-01-07T01:36:25.782Z,10.74
2023-01-07T01:38:57.538Z,10.77
2023-01-07T01:41:27.677Z,10.75
2023-01-07T01:43:57.330Z,10.73
2023-01-07T01:46:34.360Z,10.73
2023-01-07T01:49:27.253Z,10.73
2023-01-07T01:52:11.801Z,10.73
2023-01-07T01:54:44.161Z,10.76
2023-01-07T01:57:12.229Z,10.77
2023-01-07T01:59:44.520Z,10.78
2023-01-07T02:02:22.038Z,10.77
2023-01-07T02:04:50.490Z,10.75
2023-01-07T02:07:19.107Z,10.77
2023-01-07T02:10:18.492Z,10.80
2023-01-07T02:12:53.503Z,10.82
2023-01-07T02:15:32.940Z,10.84
2023-01-07T02:18:51.633Z,10.88
2023-01-07T02:21:27.888Z,10.92
2023-01-07T02:24:18.726Z,10.97
2023-01-07T02:27:39.303Z,11.03
2023-01-07T02:30:48.307Z,11.05
2023-01-07T02:33:41.375Z,11.11
2023-01-07T02:36:33.096Z,11.12
2023-01-07T02:39:25.547Z,11.14
2023-01-07T02:42:12.266Z,11.11
2023-01-07T02:45:02.481Z,11.10
2023-01-07T02:47:54.711Z,11.08
2023-01-07T02:50:22.791Z,11.09
2023-01-07T02:52:51.700Z,11.12
2023-01-07T02:55:46.342Z,11.15
2023-01-07T02:58:33.146Z,11.13
2023-01-07T03:01:27.541Z,11.10
2023-01-07T03:04:45.370Z,11.08
2023-01-07T03:07:40.300Z,11.07
2023-01-07T03:10:57.143Z,11.12
2023-01-07T03:13:54.751Z,11.14
2023-01-07T03:16:40.451Z,11.15
2023-01-07T03:19:30.524Z,11.20
2023-01-07T03:22:02.296Z,11.23
2023-01-07T03:24:33.313Z,11.24
2023-01-07T03:27:04.837Z,11.28
2023-01-07T03:29:33.285Z,11.32
2023-01-07T03:32:16.584Z,11.35
2023-01-07T03:34:45.685Z,11.39
2023-01-07T03:37:20.022Z,11.43
2023-01-07T03:39:49.255Z,11.43
2023-01-07T03:42:41.925Z,11.47
2023-01-07T03:45:25.122Z,11.47
2023-01-07T03:47:57.818Z,11.49
2023-01-07T03:50:30.683Z,11.53
2023-01-07T03:52:58.615Z,11.60
2023-01-07T03:55:26.612Z,11.66
2023-01-07T03:57:57.876Z,11.70
2023-01-07T04:00:26.825Z,11.79
2023-01-07T04:03:05.477Z,11.80
2023-01-07T04:05:37.669Z,11.82
2023-01-07T04:08:06.061Z,11.85
2023-01-07T04:10:37.037Z,11.88
2023-01-07T04:13:05.032Z,11.92
2023-01-07T04:15:32.823Z,11.90
2023-01-07T04:18:00.947Z,11.87
2023-01-07T04:20:29.321Z,11.84
2023-01-07T04:22:57.494Z,11.83
2023-01-07T04:25:25.063Z,11.84
2023-01-07T04:27:53.447Z,11.84
2023-01-07T04:30:22.338Z,11.86
2023-01-07T04:32:51.429Z,11.84
2023-01-07T04:35:19.183Z,11.77
2023-01-07T04:37:47.218Z,11.62
2023-01-07T04:40:14.929Z,11.42
2023-01-07T04:42:42.943Z,11.29
2023-01-07T04:45:11.421Z,11.12
2023-01-07T04:47:39.338Z,10.97
2023-01-07T04:50:08.079Z,10.76
2023-01-07T04:52:38.885Z,10.58
2023-01-07T04:55:08.248Z,10.41
2023-01-07T04:57:36.257Z,10.25
2023-01-07T05:00:05.703Z,10.14
2023-01-07T05:02:34.663Z,10.04
2023-01-07T05:05:03.446Z,9.88
2023-01-07T05:07:31.849Z,9.75
2023-01-07T05:10:00.178Z,9.59
2023-01-07T05:12:29.413Z,9.47
2023-01-07T05:14:57.164Z,9.33
2023-01-07T05:17:25.514Z,9.27
2023-01-07T05:19:53.885Z,9.20
2023-01-07T05:22:21.944Z,9.14
2023-01-07T05:24:49.709Z,9.14
2023-01-07T05:27:18.946Z,9.11
2023-01-07T05:29:46.628Z,9.06
2023-01-07T05:32:14.596Z,8.98
2023-01-07T05:34:42.723Z,8.93
2023-01-07T05:37:10.640Z,8.88
2023-01-07T05:39:39.995Z,8.84
2023-01-07T05:42:09.227Z,8.83
2023-01-07T05:44:36.830Z,8.83
2023-01-07T05:47:04.778Z,8.79
2023-01-07T05:49:32.351Z,8.74
2023-01-07T05:52:00.197Z,8.73
2023-01-07T05:54:27.725Z,8.70
2023-01-07T05:56:55.807Z,8.71
2023-01-07T05:59:23.421Z,8.72
2023-01-07T06:01:51.383Z,8.70
2023-01-07T06:04:19.074Z,8.67
2023-01-07T06:06:47.199Z,8.63
2023-01-07T06:09:14.918Z,8.57
2023-01-07T06:11:42.928Z,8.55
2023-01-07T06:14:10.544Z,8.52
2023-01-07T06:16:38.433Z,8.50
2023-01-07T06:19:06.013Z,8.46
2023-01-07T06:21:33.958Z,8.42
2023-01-07T06:24:01.503Z,8.39
2023-01-07T06:26:29.312Z,8.37
2023-01-07T06:28:56.875Z,8.34
2023-01-07T06:31:24.710Z,8.35
2023-01-07T06:33:52.223Z,8.34
2023-01-07T06:36:20.062Z,8.35
2023-01-07T06:38:47.608Z,8.41
2023-01-07T06:41:15.537Z,8.58
2023-01-07T06:43:43.061Z,8.77
2023-01-07T06:46:11.334Z,8.97
2023-01-07T06:48:38.986Z,9.18
2023-01-07T06:51:06.808Z,9.35
2023-01-07T06:53:34.469Z,9.52
2023-01-07T06:56:02.434Z,9.68
2023-01-07T06:58:30.195Z,9.82
2023-01-07T07:01:03.123Z,9.91
2023-01-07T07:03:30.700Z,10.02
2023-01-07T07:05:58.685Z,10.10
2023-01-07T07:08:26.338Z,10.19
2023-01-07T07:10:54.191Z,10.24
2023-01-07T07:13:22.167Z,10.30
2023-01-07T07:15:50.122Z,10.38
2023-01-07T07:18:18.304Z,10.47
2023-01-07T07:20:49.217Z,10.54
2023-01-07T07:23:16.874Z,10.62
2023-01-07T07:25:44.774Z,10.71
2023-01-07T07:28:12.441Z,10.82
2023-01-07T07:30:47.602Z,10.91
2023-01-07T07:33:19.339Z,11.00
2023-01-07T07:35:48.446Z,11.11
2023-01-07T07:38:17.848Z,11.19
2023-01-07T07:40:47.139Z,11.27
2023-01-07T07:43:15.664Z,11.34
2023-01-07T07:45:43.922Z,11.42
2023-01-07T07:48:14.519Z,11.47
2023-01-07T07:50:42.453Z,11.51
2023-01-07T07:53:10.634Z,11.55
2023-01-07T07:55:39.738Z,11.60
2023-01-07T07:58:07.370Z,11.65
2023-01-07T08:00:35.417Z,11.70
2023-01-07T08:03:03.242Z,11.74
2023-01-07T08:05:31.474Z,11.75
2023-01-07T08:07:59.067Z,11.78
2023-01-07T08:10:28.692Z,11.82
2023-01-07T08:12:56.126Z,11.82
2023-01-07T08:15:23.898Z,11.76
2023-01-07T08:18:02.350Z,11.57
2023-01-07T08:20:31.716Z,11.38
2023-01-07T08:23:00.958Z,11.24
2023-01-07T08:25:31.248Z,11.11
2023-01-07T08:28:00.218Z,11.03
2023-01-07T08:30:29.306Z,10.93
2023-01-07T08:32:57.490Z,10.87
2023-01-07T08:35:25.674Z,10.79
2023-01-07T08:38:00.208Z,10.75
2023-01-07T08:40:28.623Z,10.69
2023-01-07T08:43:05.121Z,10.65
2023-01-07T08:45:33.705Z,10.60
2023-01-07T08:48:01.249Z,10.53
2023-01-07T08:50:32.024Z,10.50
2023-01-07T08:53:00.337Z,10.54
2023-01-07T08:55:28.285Z,10.52
2023-01-07T08:57:55.896Z,10.52
2023-01-07T09:00:23.923Z,10.45
2023-01-07T09:02:51.541Z,10.38
2023-01-07T09:05:19.489Z,10.35
2023-01-07T09:07:46.985Z,10.36
2023-01-07T09:10:14.899Z,10.37
2023-01-07T09:12:42.464Z,10.38
2023-01-07T09:15:12.397Z,10.35
2023-01-07T09:17:40.933Z,10.36
2023-01-07T09:20:09.850Z,10.38
2023-01-07T09:22:37.942Z,10.38
2023-01-07T09:25:06.756Z,10.37
2023-01-07T09:27:34.340Z,10.38
2023-01-07T09:30:02.252Z,10.44
2023-01-07T09:32:30.594Z,10.48
2023-01-07T09:34:58.486Z,10.51
2023-01-07T09:37:26.047Z,10.55
2023-01-07T09:39:54.019Z,10.56
2023-01-07T09:42:56.718Z,10.60
2023-01-07T09:45:52.171Z,10.71
2023-01-07T09:48:46.674Z,10.77
2023-01-07T09:51:36.478Z,10.87
2023-01-07T09:54:12.752Z,10.90
2023-01-07T09:56:41.225Z,10.96
2023-01-07T09:59:12.665Z,11.02
2023-01-07T10:02:04.575Z,11.10
2023-01-07T10:05:01.890Z,11.21
2023-01-07T10:07:44.594Z,11.29
2023-01-07T10:10:45.925Z,11.36
2023-01-07T10:13:42.802Z,11.44
2023-01-07T10:16:55.049Z,11.41
2023-01-07T10:19:35.583Z,11.39
2023-01-07T10:22:36.638Z,11.37
2023-01-07T10:25:15.917Z,11.40
2023-01-07T10:27:46.363Z,11.49
2023-01-07T10:30:27.071Z,11.49
2023-01-07T10:33:15.549Z,11.51
2023-01-07T10:35:44.813Z,11.55
2023-01-07T10:38:19.540Z,11.65
2023-01-07T10:40:57.159Z,11.75
2023-01-07T10:43:57.025Z,11.87
2023-01-07T10:47:13.131Z,11.93
2023-01-07T10:50:17.389Z,11.97
2023-01-07T10:52:57.386Z,12.03
2023-01-07T10:55:45.216Z,12.08
2023-01-07T10:58:13.526Z,12.17
2023-01-07T11:00:41.892Z,12.22
2023-01-07T11:03:23.978Z,12.26
2023-01-07T11:06:03.052Z,12.30
2023-01-07T11:08:40.186Z,12.40
2023-01-07T11:11:18.727Z,12.50
2023-01-07T11:14:00.045Z,12.63
2023-01-07T11:16:37.401Z,12.78
2023-01-07T11:19:09.097Z,12.93
2023-01-07T11:21:43.190Z,13.08
2023-01-07T11:24:36.234Z,13.27
2023-01-07T11:27:34.257Z,13.44
2023-01-07T11:30:27.064Z,13.50
2023-01-07T11:33:04.570Z,13.55
2023-01-07T11:35:32.687Z,13.63
2023-01-07T11:38:00.625Z,13.74
2023-01-07T11:40:32.970Z,13.90
2023-01-07T11:43:17.110Z,14.08
2023-01-07T11:46:19.264Z,14.14
2023-01-07T11:49:03.196Z,14.20
2023-01-07T11:51:40.872Z,14.31
2023-01-07T11:54:29.685Z,14.48
2023-01-07T11:57:21.792Z,14.70
2023-01-07T12:00:13.920Z,14.94
2023-01-07T12:02:42.056Z,15.12
2023-01-07T12:05:33.189Z,15.30
2023-01-07T12:08:01.716Z,15.44
2023-01-07T12:10:38.707Z,15.55
2023-01-07T12:13:21.860Z,15.64
2023-01-07T12:15:58.472Z,15.71
2023-01-07T12:18:54.898Z,15.73
2023-01-07T12:22:08.823Z,15.90
2023-01-07T12:25:30.532Z,16.10
2023-01-07T12:28:19.369Z,16.17
2023-01-07T12:31:40.189Z,16.35
2023-01-07T12:34:26.566Z,16.55
2023-01-07T12:37:02.547Z,16.78
2023-01-07T12:39:45.456Z,16.89
2023-01-07T12:42:39.538Z,16.98
2023-01-07T12:45:23.525Z,17.04
2023-01-07T12:48:01.417Z,17.14
2023-01-07T12:50:54.816Z,17.38
2023-01-07T12:53:44.293Z,17.60
2023-01-07T12:56:43.491Z,17.85
2023-01-07T12:59:46.281Z,18.10
2023-01-07T13:02:35.792Z,18.25
2023-01-07T13:05:20.356Z,18.34
2023-01-07T13:08:16.274Z,18.56
2023-01-07T13:11:14.415Z,18.75
2023-01-07T13:13:51.027Z,18.90
2023-01-07T13:16:19.180Z,19.00
2023-01-07T13:18:46.874Z,19.03
2023-01-07T13:21:18.155Z,19.11
2023-01-07T13:24:19.057Z,19.18
2023-01-07T13:26:50.197Z,19.22
2023-01-07T13:29:44.084Z,19.31
2023-01-07T13:32:52.325Z,19.20
2023-01-07T13:35:44.431Z,19.05
2023-01-07T13:38:41.691Z,19.01
2023-01-07T13:41:31.051Z,19.03
2023-01-07T13:44:04.884Z,18.95
2023-01-07T13:46:41.995Z,18.67
2023-01-07T13:49:39.626Z,18.44
2023-01-07T13:52:29.847Z,18.19
2023-01-07T13:55:02.129Z,18.00
2023-01-07T13:57:51.033Z,17.77
2023-01-07T14:01:02.128Z,17.39
2023-01-07T14:03:34.024Z,17.15
2023-01-07T14:06:23.871Z,16.94
2023-01-07T14:09:06.436Z,16.72
2023-01-07T14:11:36.401Z,16.51
2023-01-07T14:14:23.094Z,16.23
2023-01-07T14:17:47.019Z,15.88
2023-01-07T14:21:15.265Z,15.58
2023-01-07T14:24:05.050Z,15.29
2023-01-07T14:26:46.901Z,15.07
2023-01-07T14:29:25.871Z,14.88
2023-01-07T14:32:26.378Z,14.65
2023-01-07T14:35:08.335Z,14.44
2023-01-07T14:37:43.820Z,14.29
2023-01-07T14:41:04.196Z,14.13
2023-01-07T14:43:43.707Z,14.02
2023-01-07T14:46:23.858Z,13.93
2023-01-07T14:49:01.826Z,13.90
2023-01-07T14:52:11.557Z,13.83
2023-01-07T14:55:13.671Z,13.75
2023-01-07T14:58:00.180Z,13.62
2023-01-07T15:01:09.192Z,13.52
2023-01-07T15:03:52.837Z,13.39
2023-01-07T15:06:39.344Z,13.25
2023-01-07T15:09:41.720Z,13.15
2023-01-07T15:12:38.662Z,13.07
2023-01-07T15:15:42.134Z,12.97
2023-01-07T15:18:12.151Z,12.87
2023-01-07T15:21:04.689Z,12.78
2023-01-07T15:23:44.401Z,12.68
2023-01-07T15:26:40.772Z,12.58
2023-01-07T15:29:57.903Z,12.45
2023-01-07T15:32:38.420Z,12.30
2023-01-07T15:35:19.898Z,12.19
2023-01-07T15:37:50.218Z,12.14
2023-01-07T15:40:24.740Z,12.06
2023-01-07T15:42:57.329Z,11.97
2023-01-07T15:45:27.838Z,11.92
2023-01-07T15:48:08.090Z,11.87
2023-01-07T15:50:40.971Z,11.80
2023-01-07T15:53:11.780Z,11.75
2023-01-07T15:55:54.839Z,11.74
2023-01-07T15:58:40.285Z,11.72
2023-01-07T16:01:21.754Z,11.71
2023-01-07T16:03:55.216Z,11.72
2023-01-07T16:06:31.642Z,11.76
2023-01-07T16:09:04.492Z,11.77
2023-01-07T16:11:32.682Z,11.76
2023-01-07T16:14:13.869Z,11.74
2023-01-07T16:16:41.997Z,11.71
2023-01-07T16:19:21.053Z,11.66
2023-01-07T16:21:59.326Z,11.60
2023-01-07T16:24:27.915Z,11.57
2023-01-07T16:27:05.285Z,11.55
2023-01-07T16:29:50.937Z,11.57
2023-01-07T16:32:20.999Z,11.63
2023-01-07T16:35:01.439Z,11.68
2023-01-07T16:37:30.208Z,11.72
2023-01-07T16:39:58.569Z,11.77
2023-01-07T16:42:27.544Z,11.85
2023-01-07T16:44:55.471Z,11.89
2023-01-07T16:47:32.828Z,11.95
2023-01-07T16:50:16.179Z,12.00
2023-01-07T16:52:56.018Z,12.05
2023-01-07T16:56:10.304Z,12.08
2023-01-07T16:58:55.585Z,12.10
2023-01-07T17:01:35.416Z,12.06
2023-01-07T17:04:15.288Z,12.02
2023-01-07T17:06:43.941Z,11.93
2023-01-07T17:09:33.420Z,11.83
2023-01-07T17:12:55.342Z,11.69
2023-01-07T17:15:43.661Z,11.57
2023-01-07T17:18:11.392Z,11.51
2023-01-07T17:20:51.562Z,11.44
2023-01-07T17:23:25.608Z,11.39
2023-01-07T17:26:08.887Z,11.36
2023-01-07T17:28:49.334Z,11.36
2023-01-07T17:31:17.182Z,11.37
2023-01-07T17:33:45.504Z,11.36
2023-01-07T17:36:24.950Z,11.36
2023-01-07T17:38:53.836Z,11.36
2023-01-07T17:41:42.502Z,11.35
2023-01-07T17:44:12.753Z,11.36
2023-01-07T17:46:41.467Z,11.34
2023-01-07T17:49:11.574Z,11.34
2023-01-07T17:51:43.910Z,11.27
2023-01-07T17:54:24.629Z,11.19
2023-01-07T17:56:52.963Z,11.16
2023-01-07T17:59:26.119Z,11.12
2023-01-07T18:01:55.123Z,11.09
2023-01-07T18:04:23.363Z,11.06
2023-01-07T18:06:51.229Z,11.00
2023-01-07T18:09:19.081Z,10.97
2023-01-07T18:12:05.154Z,10.94
2023-01-07T18:14:33.345Z,10.83
2023-01-07T18:17:01.280Z,10.78
2023-01-07T18:19:29.152Z,10.80
2023-01-07T18:21:56.597Z,10.74
2023-01-07T18:24:24.688Z,10.70
2023-01-07T18:26:52.693Z,10.63
2023-01-07T18:29:21.562Z,10.58
2023-01-07T18:31:52.460Z,10.52
2023-01-07T18:34:20.630Z,10.47
2023-01-07T18:36:48.188Z,10.46
2023-01-07T18:39:19.788Z,10.40
2023-01-07T18:41:51.539Z,10.34
2023-01-07T18:44:21.391Z,10.28
2023-01-07T18:46:49.524Z,10.25
2023-01-07T18:49:17.314Z,10.21
2023-01-07T18:51:47.115Z,10.16
2023-01-07T18:54:15.617Z,10.10
2023-01-07T18:56:45.761Z,10.06
2023-01-07T18:59:14.589Z,10.05
2023-01-07T19:01:42.816Z,10.07
2023-01-07T19:04:10.721Z,10.08
2023-01-07T19:06:38.591Z,10.05
2023-01-07T19:09:06.493Z,9.98
2023-01-07T19:11:34.484Z,9.95
2023-01-07T19:14:01.959Z,9.91
2023-01-07T19:16:29.818Z,9.91
2023-01-07T19:18:57.344Z,9.95
2023-01-07T19:21:26.670Z,9.92
2023-01-07T19:23:54.783Z,9.86
2023-01-07T19:26:22.727Z,9.83
2023-01-07T19:28:50.320Z,9.78
2023-01-07T19:31:18.214Z,9.72
2023-01-07T19:33:45.758Z,9.69
2023-01-07T19:36:15.858Z,9.68
2023-01-07T19:38:48.336Z,9.65
2023-01-07T19:41:19.738Z,9.61
2023-01-07T19:43:48.309Z,9.61
2023-01-07T19:46:16.494Z,9.59
2023-01-07T19:48:47.370Z,9.58
2023-01-07T19:51:15.579Z,9.59
2023-01-07T19:53:43.173Z,9.58
2023-01-07T19:56:12.897Z,9.58
2023-01-07T19:58:41.896Z,9.58
2023-01-07T20:01:15.392Z,9.58
2023-01-07T20:03:45.499Z,9.56
2023-01-07T20:06:16.869Z,9.55
2023-01-07T20:08:44.858Z,9.53
2023-01-07T20:11:13.295Z,9.50
2023-01-07T20:13:41.629Z,9.49
2023-01-07T20:16:16.422Z,9.46
2023-01-07T20:18:47.766Z,9.41
2023-01-07T20:21:19.472Z,9.40
2023-01-07T20:23:47.566Z,9.42
2023-01-07T20:26:25.673Z,9.43
2023-01-07T20:28:53.338Z,9.43
2023-01-07T20:31:23.798Z,9.45
2023-01-07T20:33:52.048Z,9.43
2023-01-07T20:36:23.851Z,9.44
2023-01-07T20:38:51.743Z,9.43
2023-01-07T20:41:27.707Z,9.41
2023-01-07T20:43:58.929Z,9.39
2023-01-07T20:46:29.664Z,9.39
2023-01-07T20:48:58.016Z,9.35
2023-01-07T20:51:28.449Z,9.31
2023-01-07T20:53:56.877Z,9.31
2023-01-07T20:56:26.286Z,9.29
2023-01-07T20:58:54.012Z,9.25
2023-01-07T21:01:22.128Z,9.22
2023-01-07T21:03:50.546Z,9.24
2023-01-07T21:06:20.449Z,9.22
2023-01-07T21:08:48.655Z,9.24
2023-01-07T21:11:22.071Z,9.18
2023-01-07T21:13:52.691Z,9.18
2023-01-07T21:16:20.618Z,9.19
2023-01-07T21:18:48.660Z,9.23
2023-01-07T21:21:22.225Z,9.20
2023-01-07T21:23:50.096Z,9.19
2023-01-07T21:26:20.136Z,9.16
2023-01-07T21:28:47.776Z,9.16
2023-01-07T21:31:17.143Z,9.18
2023-01-07T21:33:45.186Z,9.16
2023-01-07T21:36:19.265Z,9.17
2023-01-07T21:38:54.094Z,9.20
2023-01-07T21:41:23.806Z,9.19
2023-01-07T21:43:51.415Z,9.23
2023-01-07T21:46:20.654Z,9.25
2023-01-07T21:48:48.361Z,9.29
2023-01-07T21:51:27.471Z,9.30
2023-01-07T21:53:57.492Z,9.29
2023-01-07T21:56:32.907Z,9.27
2023-01-07T21:59:00.879Z,9.28
2023-01-07T22:01:29.535Z,9.25
2023-01-07T22:03:59.157Z,9.21
2023-01-07T22:06:38.880Z,9.18
2023-01-07T22:09:14.023Z,9.18
2023-01-07T22:11:43.163Z,9.19
2023-01-07T22:14:18.133Z,9.18
2023-01-07T22:16:48.910Z,9.15
2023-01-07T22:19:16.950Z,9.12
2023-01-07T22:21:44.870Z,9.09
2023-01-07T22:24:13.770Z,9.05
2023-01-07T22:26:41.561Z,9.01
2023-01-07T22:29:09.493Z,8.95
2023-01-07T22:31:38.144Z,8.92
2023-01-07T22:34:07.597Z,8.90
2023-01-07T22:36:54.322Z,8.89
2023-01-07T22:39:45.816Z,8.86
2023-01-07T22:42:30.009Z,8.83
2023-01-07T22:45:13.251Z,8.81
2023-01-07T22:47:47.891Z,8.79
2023-01-07T22:50:17.304Z,8.76
2023-01-07T22:52:46.125Z,8.73
2023-01-07T22:55:13.912Z,8.70
2023-01-07T22:57:42.099Z,8.66
2023-01-07T23:00:36.894Z,8.65
2023-01-07T23:03:04.926Z,8.60
2023-01-07T23:05:32.900Z,8.58
2023-01-07T23:08:00.849Z,8.60
2023-01-07T23:10:28.384Z,8.60
2023-01-07T23:12:56.343Z,8.62
2023-01-07T23:15:24.381Z,8.64
2023-01-07T23:17:52.291Z,8.60
2023-01-07T23:20:19.818Z,8.59
2023-01-07T23:22:47.830Z,8.54
2023-01-07T23:25:15.573Z,8.53
2023-01-07T23:27:43.420Z,8.52
2023-01-07T23:30:12.169Z,8.53
2023-01-07T23:32:40.083Z,8.55
2023-01-07T23:35:08.162Z,8.51
2023-01-07T23:37:35.979Z,8.49
2023-01-07T23:40:04.903Z,8.46
2023-01-07T23:42:32.856Z,8.44
2023-01-07T23:45:00.437Z,8.42
2023-01-07T23:47:28.272Z,8.40
2023-01-07T23:49:55.801Z,8.36
2023-01-07T23:52:23.729Z,8.35
2023-01-07T23:54:51.204Z,8.35
2023-01-07T23:57:19.042Z,8.38
2023-01-07T23:59:46.515Z,8.37
